Time;durP1;ratioP1;P1;durP2;ratioP2;P2;SDS_P1;SDS_P2;PMS_P1;PMS_P2;Temp;Humidity;BMP_temperature;BMP_pressure;BME280_temperature;BME280_humidity;BME280_pressure;Samples;Min_cycle;Max_cycle;Signal;HPM_P1;HPM_P2
2022/09/12 00:01:38;;;;;;;1.00;1.00;;;;;;;-145.16;100.00;77877.30;659286;217;29339;-72
2022/09/12 00:07:19;;;;;;;0.10;0.10;;;;;;;-145.16;100.00;77885.35;653687;217;32374;-72
2022/09/12 00:13:00;;;;;;;0.10;0.10;;;;;;;-145.16;100.00;77882.33;645185;218;33373;-71
2022/09/12 00:18:42;;;;;;;0.20;0.20;;;;;;;-145.16;100.00;77865.22;645186;216;32379;-71
2022/09/12 00:24:23;;;;;;;0.20;0.20;;;;;;;-145.16;100.00;77933.69;645182;218;33662;-72
2022/09/12 00:30:05;;;;;;;0.10;0.10;;;;;;;-145.16;100.00;77938.72;645182;217;32378;-72
2022/09/12 00:35:46;;;;;;;0.17;0.17;;;;;;;-145.16;100.00;77945.77;653693;217;32432;-71
2022/09/12 00:41:27;;;;;;;0.13;0.13;;;;;;;-145.16;100.00;77953.82;645177;216;32382;-70
2022/09/12 00:47:09;;;;;;;0.10;0.10;;;;;;;-145.16;100.00;77961.88;653754;217;42255;-71
2022/09/12 00:52:50;;;;;;;0.20;0.20;;;;;;;-145.16;100.00;77967.92;653755;218;34332;-71
2022/09/12 00:58:32;;;;;;;0.10;0.10;;;;;;;-145.16;100.00;77966.91;645199;217;32367;-71
2022/09/12 01:04:14;;;;;;;0.10;0.10;;;;;;;-145.16;100.00;77942.74;645187;217;34334;-71
2022/09/12 01:09:55;;;;;;;0.10;0.10;;;;;;;-145.16;100.00;77918.58;653705;217;32394;-71
2022/09/12 01:15:36;;;;;;;0.30;0.30;;;;;;;-145.16;100.00;77907.50;645176;218;32378;-71
2022/09/12 01:21:20;;;;;;;0.20;0.20;;;;;;;-145.16;100.00;77921.59;653700;217;33328;-71
2022/09/12 01:24:39;;;;;;;0.00;0.00;;;;;;;-145.16;100.00;77919.59;647454;222;22683;-72
2022/09/12 01:30:48;;;;;;;0.10;0.10;;;;;;;-145.16;100.00;77942.74;645189;217;53796;-72
2022/09/12 01:36:33;;;;;;;0.17;0.17;;;;;;;-145.16;100.00;77934.69;645226;217;35288;-71
2022/09/12 01:42:13;;;;;;;0.10;0.10;;;;;;;-145.16;100.00;77955.83;645193;217;34328;-72
2022/09/12 01:47:56;;;;;;;0.10;0.10;;;;;;;-145.16;100.00;77939.72;645167;217;43105;-71
2022/09/12 01:53:37;;;;;;;0.10;0.10;;;;;;;-145.16;100.00;77949.79;645160;218;32363;-72
2022/09/12 01:59:19;;;;;;;0.10;0.10;;;;;;;-145.16;100.00;77964.89;645174;217;33352;-72
2022/09/12 02:05:03;;;;;;;0.10;0.10;;;;;;;-145.16;100.00;77984.02;653685;218;32318;-72
2022/09/12 02:10:45;;;;;;;0.10;0.10;;;;;;;-145.16;100.00;78009.20;645227;217;34355;-72
2022/09/12 02:16:26;;;;;;;0.10;0.10;;;;;;;-145.16;100.00;78004.16;645259;217;35670;-72
2022/09/12 02:22:08;;;;;;;10.60;10.00;;;;;;;-145.16;100.00;78014.23;645166;217;34326;-72
2022/09/12 02:27:50;;;;;;;0.10;0.10;;;;;;;-145.16;100.00;78019.27;653680;217;33360;-72
2022/09/12 02:33:31;;;;;;;0.20;0.20;;;;;;;-145.16;100.00;78039.41;653733;217;35284;-72
2022/09/12 02:39:12;;;;;;;0.33;0.33;;;;;;;-145.16;100.00;78049.48;653684;218;34331;-72
2022/09/12 02:44:54;;;;;;;0.20;0.20;;;;;;;-145.16;100.00;78056.52;645266;218;37643;-72
2022/09/12 02:50:36;;;;;;;0.10;0.10;;;;;;;-145.16;100.00;78054.51;653704;217;34290;-72
2022/09/12 02:56:19;;;;;;;0.10;0.10;;;;;;;-145.16;100.00;78012.22;645113;217;35340;-72
2022/09/12 03:02:00;;;;;;;0.10;0.10;;;;;;;-145.16;100.00;78004.16;645185;216;32416;-72
2022/09/12 03:08:12;;;;;;;0.10;0.10;;;;;;;-145.16;100.00;78038.40;645026;216;32370;-72
2022/09/12 03:14:33;;;;;;;0.10;0.10;;;;;;;-145.16;100.00;77963.89;645219;217;41110;-72
2022/09/12 03:20:35;;;;;;;0.10;0.10;;;;;;;-145.16;100.00;77953.82;645182;217;32343;-72
2022/09/12 03:26:16;;;;;;;0.22;0.22;;;;;;;-145.16;100.00;77959.86;645177;217;32378;-71
2022/09/12 03:31:58;;;;;;;0.00;0.00;;;;;;;-145.16;100.00;77929.66;645261;218;33365;-71
2022/09/12 03:37:40;;;;;;;0.50;0.50;;;;;;;-145.16;100.00;77926.63;645065;217;32365;-72
2022/09/12 03:43:22;;;;;;;0.10;0.10;;;;;;;-145.16;100.00;77908.51;645189;217;32372;-72
2022/09/12 03:49:04;;;;;;;0.10;0.10;;;;;;;-145.16;100.00;77895.42;653692;217;43106;-72
2022/09/12 03:54:45;;;;;;;0.40;0.40;;;;;;;-145.16;100.00;77871.25;645164;217;33348;-72
2022/09/12 04:00:27;;;;;;;0.10;0.10;;;;;;;-145.16;100.00;77850.11;645229;217;34319;-72
2022/09/12 04:06:10;;;;;;;0.10;0.10;;;;;;;-145.16;100.00;77844.07;645079;217;37479;-72
2022/09/12 04:11:51;;;;;;;0.20;0.20;;;;;;;-145.16;100.00;77806.81;653686;217;35284;-72
2022/09/12 04:17:33;;;;;;;0.10;0.10;;;;;;;-145.16;100.00;77785.67;645176;217;32360;-72
2022/09/12 04:23:14;;;;;;;0.00;0.00;;;;;;;-145.16;100.00;77777.62;645184;218;34284;-72
2022/09/12 04:28:56;;;;;;;0.20;0.20;;;;;;;-145.16;100.00;77817.89;645242;217;34319;-72
2022/09/12 04:34:39;;;;;;;0.10;0.10;;;;;;;-145.16;100.00;77808.83;645024;217;34362;-72
2022/09/12 04:40:20;;;;;;;0.10;0.10;;;;;;;-145.16;100.00;77800.77;645236;216;35343;-72
2022/09/12 04:46:02;;;;;;;0.10;0.10;;;;;;;-145.16;100.00;77766.55;645198;217;33372;-72
2022/09/12 04:51:45;;;;;;;0.10;0.10;;;;;;;-145.16;100.00;77775.61;645028;218;32370;-72
2022/09/12 04:57:28;;;;;;;0.00;0.00;;;;;;;-145.16;100.00;77747.41;653647;217;33652;-72
2022/09/12 05:03:12;;;;;;;0.20;0.20;;;;;;;-145.16;100.00;77742.38;645043;217;32364;-72
2022/09/12 05:08:54;;;;;;;0.90;0.90;;;;;;;-145.16;100.00;77751.44;645158;217;34307;-72
2022/09/12 05:14:35;;;;;;;0.43;0.43;;;;;;;-145.16;100.00;77743.39;645233;217;34331;-72
2022/09/12 05:20:16;;;;;;;0.10;0.10;;;;;;;-145.16;100.00;77693.05;645179;217;34338;-72
2022/09/12 05:25:57;;;;;;;0.13;0.13;;;;;;;-145.16;100.00;77629.62;641113;217;32364;-73
2022/09/12 05:31:39;;;;;;;0.98;0.90;;;;;;;-145.16;100.00;77622.57;653753;217;39388;-73
2022/09/12 05:37:22;;;;;;;0.40;0.40;;;;;;;-145.16;100.00;77630.63;653670;217;33353;-73
2022/09/12 05:43:03;;;;;;;0.10;0.10;;;;;;;-145.16;100.00;77650.77;653676;217;33368;-73
2022/09/12 05:48:45;;;;;;;0.10;0.10;;;;;;;-145.16;100.00;77638.67;645166;218;32362;-72
2022/09/12 05:54:27;;;;;;;2.40;1.90;;;;;;;-145.16;100.00;77650.77;645218;216;33116;-72
2022/09/12 06:00:08;;;;;;;2.60;2.10;;;;;;;-145.16;100.00;77650.77;645163;217;32380;-72
2022/09/12 06:05:49;;;;;;;0.20;0.20;;;;;;;-145.16;100.00;77657.80;642817;216;32543;-72
2022/09/12 06:11:32;;;;;;;1.10;0.90;;;;;;;-145.16;100.00;77668.88;653692;217;33332;-72
2022/09/12 06:17:12;;;;;;;1.40;1.30;;;;;;;-145.16;100.00;77694.05;653693;217;32376;-72
2022/09/12 06:22:53;;;;;;;0.20;0.20;;;;;;;-145.16;100.00;77712.17;653688;217;54100;-72
2022/09/12 06:28:36;;;;;;;0.10;0.10;;;;;;;-145.16;100.00;77714.19;653669;217;32432;-72
2022/09/12 06:34:18;;;;;;;1.30;1.30;;;;;;;-145.16;100.00;77714.19;643419;217;33314;-72
2022/09/12 06:39:59;;;;;;;0.30;0.30;;;;;;;-145.16;100.00;77649.75;645283;217;33340;-72
2022/09/12 06:45:41;;;;;;;3.50;1.40;;;;;;;-145.16;100.00;77312.49;645156;217;33491;-72
2022/09/12 06:51:25;;;;;;;1.77;1.67;;;;;;;-145.16;100.00;77113.17;645040;218;32444;-73
2022/09/12 06:57:06;;;;;;;3.00;1.70;;;;;;;-145.16;100.00;76897.76;645169;217;32412;-73
2022/09/12 07:02:49;;;;;;;4.12;3.30;;;;;;;-145.16;100.00;76885.67;645048;217;32723;-74
2022/09/12 07:08:30;;;;;;;2.17;1.62;;;;;;;-145.16;100.00;76659.20;653688;218;32399;-74
2022/09/12 07:14:12;;;;;;;0.60;0.60;;;;;;;-145.16;100.00;76542.45;645149;218;32457;-71
2022/09/12 07:19:54;;;;;;;0.82;0.82;;;;;;;-145.16;100.00;76400.55;653656;217;32359;-71
2022/09/12 07:25:36;;;;;;;2.30;2.20;;;;;;;-145.16;100.00;76391.48;645149;217;32424;-74
2022/09/12 07:31:16;;;;;;;3.20;2.95;;;;;;;-145.16;100.00;76647.13;653648;217;32390;-71
2022/09/12 07:36:58;;;;;;;1.80;1.70;;;;;;;-145.16;100.00;76718.59;653647;218;32355;-71
2022/09/12 07:42:39;;;;;;;1.40;1.40;;;;;;;-145.16;100.00;76921.91;645164;217;32369;-72
2022/09/12 07:48:21;;;;;;;2.30;2.20;;;;;;;-145.16;100.00;76499.17;645149;218;32369;-71
2022/09/12 07:54:06;;;;;;;6.05;4.53;;;;;;;-145.16;100.00;76656.19;645015;218;32389;-71
2022/09/12 07:59:47;;;;;;;5.00;2.67;;;;;;;-145.16;100.00;76648.13;645163;217;32433;-72
2022/09/12 08:05:29;;;;;;;1.17;1.10;;;;;;;-145.16;100.00;76553.52;645206;217;32356;-72
2022/09/12 08:11:11;;;;;;;1.73;1.48;;;;;;;-145.16;100.00;76567.61;653674;217;32303;-71
2022/09/12 08:16:52;;;;;;;1.25;1.15;;;;;;;-145.16;100.00;76538.42;645157;217;32656;-71
2022/09/12 08:22:33;;;;;;;3.42;2.97;;;;;;;-145.16;100.00;76338.14;645178;217;32324;-71
2022/09/12 08:28:15;;;;;;;1.73;1.65;;;;;;;-145.16;100.00;76053.34;653663;217;32374;-71
2022/09/12 08:33:56;;;;;;;2.00;1.80;;;;;;;-145.16;100.00;76057.36;645159;217;32420;-72
2022/09/12 08:39:38;;;;;;;1.73;1.62;;;;;;;-145.16;99.05;76183.16;645162;216;32367;-72
2022/09/12 08:45:20;;;;;;;1.00;1.00;;;;;;;-145.16;100.00;76269.70;653663;217;32387;-72
2022/09/12 08:51:03;;;;;;;4.75;3.87;;;;;;;-145.16;100.00;76394.50;645168;217;32453;-72
2022/09/12 08:56:42;;;;;;;3.60;1.83;;;;;;;-145.16;100.00;76367.33;645172;217;43066;-72
2022/09/12 09:02:23;;;;;;;1.90;1.73;;;;;;;-145.16;100.00;76274.73;645158;217;32364;-72
2022/09/12 09:08:05;;;;;;;1.10;0.88;;;;;;;-145.16;92.10;75955.73;645169;217;43380;-71
2022/09/12 09:19:47;;;;;;;1.40;1.40;;;;;;;-145.16;100.00;76219.39;653644;218;32387;-72
2022/09/12 09:25:29;;;;;;;7.35;6.85;;;;;;;-145.16;98.26;76051.33;645118;217;43083;-72
2022/09/12 09:31:10;;;;;;;2.08;1.87;;;;;;;-145.16;100.00;76222.41;645167;217;43120;-72
2022/09/12 09:36:52;;;;;;;0.73;0.73;;;;;;;-145.16;100.00;76142.91;645187;217;43122;-71
2022/09/12 09:42:43;;;;;;;1.50;1.42;;;;;;;-145.16;100.00;76202.28;645047;217;32443;-73
2022/09/12 09:48:25;;;;;;;2.37;2.22;;;;;;;-145.16;96.51;76227.44;653561;217;32733;-72
2022/09/12 09:54:09;;;;;;;1.80;1.70;;;;;;;-145.16;97.33;76144.91;653664;218;32392;-72
2022/09/12 09:59:50;;;;;;;1.90;1.83;;;;;;;-145.16;90.57;76058.37;645170;218;32378;-72
2022/09/12 10:05:33;;;;;;;1.17;1.12;;;;;;;-145.16;85.71;75796.73;645164;217;43088;-71
2022/09/12 10:11:14;;;;;;;1.67;1.58;;;;;;;-145.16;79.58;75743.41;644953;218;43382;-71
2022/09/12 10:16:57;;;;;;;0.95;0.95;;;;;;;-145.16;75.42;75753.47;645186;218;43065;-72
2022/09/12 10:22:37;;;;;;;1.83;1.60;;;;;;;-145.16;77.71;76008.05;653651;217;32378;-71
2022/09/12 10:28:20;;;;;;;0.70;0.70;;;;;;;-145.16;76.35;75759.50;645150;217;32365;-72
2022/09/12 10:34:04;;;;;;;1.95;1.17;;;;;;;-145.16;78.53;75936.61;644760;217;32367;-71
2022/09/12 10:39:50;;;;;;;0.88;0.88;;;;;;;-145.16;78.02;75915.47;648102;217;32330;-71
2022/09/12 10:45:31;;;;;;;0.55;0.55;;;;;;;-145.16;75.98;75742.40;653644;217;32381;-71
2022/09/12 10:51:14;;;;;;;0.60;0.60;;;;;;;-145.16;72.86;75759.50;644989;217;32392;-71
2022/09/12 10:56:58;;;;;;;0.90;0.90;;;;;;;-145.16;69.51;75672.97;645029;218;32373;-72
2022/09/12 11:02:39;;;;;;;1.35;1.30;;;;;;;-145.16;72.52;75881.27;645189;217;32342;-73
2022/09/12 11:08:21;;;;;;;0.60;0.60;;;;;;;-145.16;72.82;75782.64;645158;217;32437;-71
2022/09/12 11:14:03;;;;;;;0.47;0.47;;;;;;;-145.16;70.46;75887.30;645178;217;32338;-72
2022/09/12 11:19:46;;;;;;;1.20;1.20;;;;;;;-145.16;76.73;75959.75;645118;217;32368;-71
2022/09/12 11:25:30;;;;;;;1.35;1.25;;;;;;;-145.16;73.04;76021.14;639572;217;32464;-71
2022/09/12 11:31:21;;;;;;;0.90;0.88;;;;;;;-145.16;75.79;76189.20;632040;217;32563;-71
2022/09/12 11:37:03;;;;;;;0.55;0.55;;;;;;;-145.16;77.73;76042.27;645137;217;43062;-72
2022/09/12 11:42:44;;;;;;;1.52;1.42;;;;;;;-145.16;71.99;76112.72;636378;218;43215;-71
2022/09/12 11:48:26;;;;;;;0.85;0.85;;;;;;;-145.16;83.27;76339.15;641151;217;43127;-71
2022/09/12 11:54:08;;;;;;;0.40;0.40;;;;;;;-145.16;85.32;76278.77;631930;217;32522;-71
2022/09/12 11:59:50;;;;;;;0.90;0.90;;;;;;;-145.16;88.89;76282.79;645191;217;32313;-72
2022/09/12 12:05:34;;;;;;;1.10;1.10;;;;;;;-145.16;86.69;76252.59;648252;217;32356;-73
2022/09/12 12:11:15;;;;;;;0.40;0.40;;;;;;;-145.16;87.20;76219.39;645011;217;32342;-73
2022/09/12 12:16:58;;;;;;;0.30;0.30;;;;;;;-145.16;88.85;76252.59;638985;217;32359;-71
2022/09/12 12:22:42;;;;;;;1.75;1.40;;;;;;;-145.16;90.86;76460.92;642306;217;32379;-71
2022/09/12 12:28:37;;;;;;;1.00;1.00;;;;;;;-145.16;96.51;76382.42;641685;217;32322;-71
2022/09/12 12:34:18;;;;;;;0.57;0.57;;;;;;;-145.16;97.61;76374.38;651377;217;32472;-71
2022/09/12 12:40:04;;;;;;;2.05;1.70;;;;;;;-145.16;100.00;76443.81;631077;217;32525;-71
2022/09/12 12:46:31;;;;;;;1.25;1.25;;;;;;;-145.16;100.00;76339.15;644938;217;32335;-73
2022/09/12 12:52:16;;;;;;;0.85;0.85;;;;;;;-145.16;98.09;76316.00;643398;217;32459;-73
2022/09/12 12:58:08;;;;;;;1.60;1.00;;;;;;;-145.16;95.39;76383.44;644561;217;32438;-72
2022/09/12 13:03:30;;;;;;;0.82;0.82;;;;;;;;;;645109;217;32423;-73
2022/09/12 13:09:12;;;;;;;0.88;0.88;;;;;;;-145.16;91.68;76305.94;653650;217;32310;-72
2022/09/12 13:14:53;;;;;;;1.25;1.20;;;;;;;-145.16;95.01;76296.88;645104;218;32370;-71
2022/09/12 13:20:44;;;;;;;0.98;0.98;;;;;;;-145.16;97.45;76408.59;645162;217;32427;-71
2022/09/12 13:26:35;;;;;;;1.33;1.33;;;;;;;-145.16;99.28;76320.03;645166;218;32436;-71
2022/09/12 13:32:23;;;;;;;0.40;0.40;;;;;;;-145.16;87.24;76254.61;653685;217;32403;-71
2022/09/12 13:38:07;;;;;;;0.82;0.82;;;;;;;-145.16;89.97;76222.41;645174;217;32353;-71
2022/09/12 13:43:49;;;;;;;0.60;0.60;;;;;;;-145.16;90.33;76150.95;645176;218;32372;-71
2022/09/12 13:49:30;;;;;;;0.60;0.60;;;;;;;-145.16;89.56;76216.37;645177;217;32325;-73
2022/09/12 13:55:14;;;;;;;1.30;1.20;;;;;;;-145.16;91.22;76302.92;645034;217;32321;-71
2022/09/12 14:00:55;;;;;;;0.50;0.50;;;;;;;-145.16;92.72;76220.39;644859;217;32363;-71
2022/09/12 14:06:39;;;;;;;0.50;0.50;;;;;;;-145.16;87.66;76192.22;645180;217;32314;-71
2022/09/12 14:12:25;;;;;;;0.40;0.40;;;;;;;-145.16;92.71;76152.97;653704;217;32317;-71
2022/09/12 14:18:09;;;;;;;0.40;0.40;;;;;;;-145.16;87.72;76071.45;645007;217;32367;-73
2022/09/12 14:23:50;;;;;;;0.50;0.50;;;;;;;-145.16;86.51;76126.80;645159;217;32368;-71
2022/09/12 14:29:33;;;;;;;0.40;0.40;;;;;;;-145.16;83.65;76154.98;653680;217;32381;-71
2022/09/12 14:35:16;;;;;;;0.35;0.35;;;;;;;-145.16;83.50;76078.50;645178;217;32361;-73
2022/09/12 14:40:58;;;;;;;0.37;0.37;;;;;;;-145.16;88.02;76172.09;645183;217;32405;-71
2022/09/12 14:46:40;;;;;;;0.40;0.40;;;;;;;-145.16;85.87;76224.42;645174;217;32363;-70
2022/09/12 14:52:22;;;;;;;0.40;0.40;;;;;;;-145.16;93.11;76232.47;653679;217;32344;-71
2022/09/12 14:58:09;;;;;;;0.40;0.40;;;;;;;-145.16;97.37;76256.63;645162;217;32392;-70
2022/09/12 15:03:51;;;;;;;0.80;0.80;;;;;;;-145.16;96.51;76289.83;645183;217;32643;-71
2022/09/12 15:09:32;;;;;;;0.60;0.60;;;;;;;-145.16;94.63;76275.75;653671;217;32361;-71
2022/09/12 15:15:13;;;;;;;0.40;0.40;;;;;;;-145.16;92.02;76261.66;645168;218;32380;-73
2022/09/12 15:20:55;;;;;;;0.40;0.40;;;;;;;-145.16;95.33;76258.64;653668;217;32358;-72
2022/09/12 15:26:46;;;;;;;0.32;0.32;;;;;;;-145.16;94.33;76268.70;645166;217;32367;-73
2022/09/12 15:32:28;;;;;;;0.30;0.30;;;;;;;-145.16;92.64;76270.71;645187;217;32653;-70
2022/09/12 15:38:11;;;;;;;0.50;0.50;;;;;;;-145.16;92.32;76240.52;653664;217;32411;-71
2022/09/12 15:43:53;;;;;;;0.68;0.68;;;;;;;-145.16;88.30;76245.55;653666;217;32364;-73
2022/09/12 15:49:34;;;;;;;0.30;0.30;;;;;;;-145.16;93.15;76232.47;653661;217;32357;-70
2022/09/12 15:55:16;;;;;;;0.35;0.35;;;;;;;-145.16;90.82;76221.41;632295;221;32495;-70
2022/09/12 16:00:57;;;;;;;0.30;0.30;;;;;;;-145.16;91.86;76235.48;645168;217;32970;-73
2022/09/12 16:06:38;;;;;;;0.40;0.40;;;;;;;-145.16;88.35;76242.53;645177;216;32388;-71
2022/09/12 16:12:19;;;;;;;0.40;0.40;;;;;;;-145.16;87.30;76260.65;653660;217;32400;-72
2022/09/12 16:18:03;;;;;;;0.30;0.30;;;;;;;-145.16;99.14;76343.17;645002;216;32360;-73
2022/09/12 16:23:44;;;;;;;0.40;0.40;;;;;;;-145.16;100.00;76351.23;645159;217;32685;-70
2022/09/12 16:29:26;;;;;;;0.30;0.30;;;;;;;-145.16;100.00;76376.39;645151;218;32380;-71
2022/09/12 16:35:07;;;;;;;0.30;0.30;;;;;;;-145.16;100.00;76348.20;653678;218;32364;-70
2022/09/12 16:40:48;;;;;;;0.40;0.40;;;;;;;-145.16;100.00;76377.39;645160;217;32376;-73
2022/09/12 16:46:30;;;;;;;0.30;0.30;;;;;;;-145.16;100.00;76385.45;653682;217;32349;-70
2022/09/12 16:52:15;;;;;;;0.32;0.32;;;;;;;-145.16;100.00;76407.59;653632;217;32640;-72
2022/09/12 16:57:56;;;;;;;0.40;0.40;;;;;;;-145.16;100.00;76439.80;645044;216;32364;-72
2022/09/12 17:03:38;;;;;;;0.40;0.40;;;;;;;-145.16;100.00;76443.81;653670;217;32372;-70
2022/09/12 17:09:20;;;;;;;0.30;0.30;;;;;;;-145.16;100.00;76440.80;645155;216;32356;-70
2022/09/12 17:14:41;;;;;;;0.30;0.30;;;;;;;;;;645162;217;32378;-72
2022/09/12 17:20:04;;;;;;;0.30;0.30;;;;;;;;;;653686;217;32364;-73
2022/09/12 17:25:27;;;;;;;0.30;0.30;;;;;;;;;;645070;217;36301;-73
2022/09/12 17:33:49;;;;;;;0.30;0.30;;;;;;;;;;645178;217;32425;-73
2022/09/12 17:39:11;;;;;;;0.30;0.30;;;;;;;;;;645175;217;32368;-73
2022/09/12 21:18:36;;;;;;;0.10;0.10;;;;;;;;;;645174;217;32422;-72
